Date,TemperatureHighF,TemperatureAvgF,TemperatureLowF,DewpointHighF,DewpointAvgF,DewpointLowF,HumidityHigh,HumidityAvg,HumidityLow,PressureMaxIn,PressureMinIn,WindSpeedMaxMPH,WindSpeedAvgMPH,GustSpeedMaxMPH,PrecipitationSumIn
2012-1-1,45,40,36,42,36,33,98,86,66,0.00,40.00,8,4,16,0.00
2012-1-2,48,43,36,47,35,22,97,74,52,0.00,40.00,11,8,23,0.11
2012-1-3,36,25,11,22,12,3,69,56,45,0.00,40.00,9,5,21,0.08
2012-1-4,27,16,9,13,2,-1,74,56,38,0.00,40.00,9,5,20,0.00
2012-1-5,34,28,25,24,15,9,70,56,49,0.00,40.00,8,4,22,0.00
2012-1-6,40,29,23,38,19,9,95,69,47,0.00,40.00,6,3,19,0.07
2012-1-7,42,35,29,38,33,28,97,95,87,0.00,40.00,4,1,8,0.07
2012-1-8,41,34,28,32,24,18,97,69,44,0.00,40.00,8,4,21,0.00
2012-1-9,37,28,20,25,15,5,82,58,41,0.00,40.00,7,4,17,0.00
2012-1-10,40,37,27,35,27,19,93,68,48,0.00,40.00,10,6,23,0.05
2012-1-11,32,23,16,19,6,-2,65,49,31,0.00,40.00,10,5,22,0.01
2012-1-12,39,32,25,38,28,12,96,85,58,0.00,40.00,15,9,34,0.99
2012-1-13,50,36,29,48,32,22,98,87,62,0.00,40.00,14,7,35,0.71
2012-1-14,35,27,11,25,15,-1,70,62,52,0.00,40.00,12,7,28,0.03
2012-1-15,15,9,4,1,-1,-2,77,64,47,0.00,40.00,8,6,22,0.00
2012-1-16,37,21,9,25,9,0,71,59,44,0.00,40.00,16,6,33,0.00
2012-1-17,44,35,31,43,32,28,97,89,69,0.00,40.00,14,4,35,0.33
2012-1-18,46,35,17,45,23,3,97,65,42,0.00,40.00,11,8,28,0.25
2012-1-19,27,19,9,19,5,-1,71,55,38,0.00,40.00,8,4,23,0.00
2012-1-20,33,28,18,32,21,5,96,75,57,0.00,40.00,7,5,19,0.22
2012-1-21,18,14,13,11,6,-2,81,69,50,0.00,40.00,9,5,16,0.01
2012-1-22,25,16,12,11,7,4,89,68,46,0.00,40.00,8,4,15,0.02
2012-1-23,45,36,17,44,31,15,97,84,72,0.00,40.00,10,5,23,0.19
2012-1-24,51,44,38,50,43,36,98,97,93,0.00,40.00,12,6,27,0.40
2012-1-25,41,36,29,36,24,18,95,65,49,0.00,40.00,7,5,19,0.09
2012-1-26,37,31,27,21,17,13,74,55,39,0.00,40.00,7,4,16,0.00
2012-1-27,49,38,31,48,35,20,98,90,56,0.00,40.00,13,7,33,1.99
2012-1-28,43,36,29,34,28,25,96,73,53,0.00,40.00,10,6,30,0.18
2012-1-29,42,38,35,34,23,15,79,55,33,0.00,40.00,9,6,20,0.00
2012-1-30,39,33,24,27,17,4,89,54,33,0.00,40.00,8,6,20,0.01
2012-1-31,36,26,22,34,17,4,96,70,44,0.00,40.00,7,5,17,0.04
2012-2-1,41,35,30,40,34,27,97,95,92,0.00,40.00,6,3,14,0.26
2012-2-2,28,26,24,27,21,17,94,83,76,0.00,40.00,8,6,17,0.09
2012-2-3,31,25,19,17,13,10,79,62,42,0.00,40.00,9,6,23,0.00
2012-2-4,34,29,21,21,15,11,74,57,40,0.00,40.00,9,4,19,0.00
2012-2-5,31,23,16,13,9,5,72,56,36,0.00,40.00,7,4,14,0.00
2012-2-6,42,36,27,34,25,13,87,66,52,0.00,40.00,8,5,17,0.00
2012-2-7,43,34,23,29,22,7,89,62,40,0.00,40.00,8,4,22,0.00
2012-2-8,36,27,13,23,12,3,72,53,35,0.00,40.00,9,5,21,0.00
2012-2-9,42,33,23,23,19,12,89,59,30,0.00,40.00,6,3,12,0.00
2012-2-10,46,35,20,37,28,18,91,76,50,0.00,40.00,10,5,22,0.00
2012-2-11,40,32,21,34,29,15,95,88,74,0.00,40.00,12,5,23,0.09
2012-2-12,22,16,8,15,3,-7,79,58,45,0.00,40.00,11,8,30,0.07
2012-2-13,30,21,9,11,5,-5,73,50,40,0.00,40.00,8,5,23,0.02
2012-2-14,44,32,16,28,22,11,86,69,42,0.00,40.00,7,4,15,0.02
2012-2-15,43,35,29,34,31,27,95,85,69,0.00,40.00,2,1,5,0.02
2012-2-16,48,36,29,34,31,27,95,83,48,0.00,40.00,4,1,8,0.00
2012-2-17,41,38,33,40,37,31,97,96,90,0.00,40.00,8,3,16,0.17
2012-2-18,43,35,32,31,25,19,97,67,41,0.00,40.00,7,4,16,0.01
2012-2-19,41,34,30,20,16,13,62,49,31,0.00,40.00,9,6,21,0.00
2012-2-20,35,29,23,17,12,7,64,49,31,0.00,40.00,8,6,25,0.00
2012-2-21,37,31,22,29,17,12,73,58,37,0.00,40.00,10,5,20,0.01
2012-2-22,46,41,36,41,38,33,96,88,76,0.00,40.00,9,6,19,0.07
2012-2-23,46,42,35,44,37,26,96,82,64,0.00,40.00,10,6,24,0.22
2012-2-24,41,35,29,36,29,26,96,78,57,0.00,40.00,9,4,23,0.74
2012-2-25,41,36,30,39,29,18,97,75,59,0.00,40.00,9,6,23,1.44
2012-2-26,36,30,25,18,11,7,61,47,31,0.00,40.00,11,8,30,0.01
2012-2-27,41,29,19,39,17,7,92,62,42,0.00,40.00,9,5,21,0.03
2012-2-28,39,32,26,37,23,13,95,71,45,0.00,40.00,10,5,22,0.03
2012-2-29,38,27,14,19,15,11,88,63,34,0.00,40.00,9,2,18,0.00
2012-3-1,32,27,21,25,22,18,92,82,56,0.00,40.00,13,11,28,0.00
2012-3-2,32,24,18,27,21,15,93,88,80,0.00,40.00,10,5,21,0.00
2012-3-3,43,34,26,42,29,-100,98,90,85,0.00,40.00,11,-38,28,0.72
2012-3-4,41,35,26,36,29,25,97,78,59,0.00,40.00,7,3,16,0.01
2012-3-5,34,28,22,28,18,7,96,68,42,0.00,40.00,7,4,17,0.04
2012-3-6,34,25,18,13,10,5,68,53,35,0.00,40.00,6,4,16,0.01
2012-3-7,47,37,19,39,29,11,87,73,55,0.00,40.00,11,7,29,0.00
2012-3-8,52,47,42,44,41,36,89,80,72,0.00,40.00,15,12,38,0.00
2012-3-9,49,38,31,46,21,-100,95,61,33,0.00,40.00,15,-44,34,0.35
2012-3-10,40,31,25,20,15,10,73,52,30,0.00,40.00,7,4,15,0.01
2012-3-11,45,39,29,36,28,20,90,65,52,0.00,40.00,11,7,23,0.00
2012-3-12,61,46,32,37,34,30,95,65,35,0.00,40.00,8,4,13,0.00
2012-3-13,52,44,39,44,39,34,96,84,70,0.00,40.00,8,3,14,0.00
2012-3-14,39,36,33,38,35,29,97,95,89,0.00,40.00,10,7,22,0.14
2012-3-15,37,33,31,30,28,26,94,80,66,0.00,40.00,8,6,16,0.01
2012-3-16,38,35,33,36,31,28,97,85,73,0.00,40.00,6,2,10,0.27
2012-3-17,54,43,35,38,36,33,97,80,50,0.00,40.00,7,3,11,0.10
2012-3-18,51,43,38,43,34,-100,95,81,72,0.00,40.00,14,-34,26,0.01
2012-3-19,61,49,41,45,40,34,96,72,48,0.00,40.00,12,7,23,0.01
2012-3-20,55,44,35,46,35,-100,96,79,64,0.00,40.00,12,-20,19,0.00
2012-3-21,72,55,43,52,47,42,97,77,49,0.00,40.00,9,5,21,0.00
2012-3-22,66,57,47,51,46,-100,92,72,52,0.00,40.00,11,-4,24,0.00
2012-3-23,62,55,45,49,32,21,79,46,22,0.00,40.00,6,4,16,0.00
2012-3-24,50,40,36,33,16,-100,77,43,23,0.00,40.00,9,5,15,0.00
2012-3-25,45,41,38,39,37,34,96,85,70,0.00,40.00,6,3,14,0.25
2012-3-26,39,35,29,38,24,10,98,69,42,0.00,40.00,11,6,29,0.03
2012-3-27,41,32,23,12,8,3,54,39,22,0.00,40.00,12,9,29,0.01
2012-3-28,41,34,33,35,16,-100,94,55,32,0.00,40.00,9,-39,18,0.57
2012-3-29,37,33,33,35,26,-100,95,85,79,0.00,40.00,9,-39,23,0.60
2012-3-30,43,37,33,30,23,17,80,57,38,0.00,40.00,9,7,26,0.01
2012-3-31,46,36,26,26,21,14,81,56,27,0.00,40.00,6,3,15,0.00
2012-4-1,53,35,25,33,20,-100,94,68,32,0.00,40.00,5,2,11,0.00
2012-4-2,49,40,33,35,31,18,89,72,42,0.00,40.00,6,2,14,0.00
2012-4-3,51,40,34,27,15,-100,59,41,34,0.00,40.00,8,5,19,0.00
2012-4-4,54,44,38,34,29,25,67,55,37,0.00,40.00,6,4,20,0.00
2012-4-5,47,40,37,29,19,-100,67,48,43,0.00,40.00,8,6,21,0.00
2012-4-6,49,37,31,31,12,-100,90,49,34,0.00,40.00,8,-92,17,0.00
2012-4-7,47,40,29,26,22,20,81,50,37,0.00,40.00,8,5,19,0.00
2012-4-8,41,38,35,37,29,24,92,72,53,0.00,40.00,8,4,20,0.08
2012-4-9,48,44,39,42,38,36,92,82,70,0.00,40.00,9,6,17,0.06
2012-4-10,52,46,38,38,36,33,90,72,53,0.00,40.00,10,7,22,0.01
2012-4-11,57,41,32,42,35,31,97,82,45,0.00,40.00,7,2,13,0.00
2012-4-12,51,44,37,42,33,-100,96,79,62,0.00,40.00,8,3,16,0.09
2012-4-13,55,44,34,41,36,31,97,75,40,0.00,40.00,10,4,19,0.08
2012-4-14,59,47,35,37,34,27,91,63,32,0.00,40.00,9,4,20,0.00
2012-4-15,62,52,43,48,43,39,88,73,48,0.00,40.00,10,5,16,0.00
2012-4-16,69,52,45,56,37,-100,94,78,62,0.00,40.00,10,3,24,0.00
2012-4-17,62,52,46,51,47,44,97,85,63,0.00,40.00,9,4,19,0.00
2012-4-18,58,49,38,46,33,28,95,56,33,0.00,40.00,9,4,18,0.00
2012-4-19,53,44,33,42,38,31,96,81,64,0.00,40.00,8,4,16,0.00
2012-4-20,59,51,45,48,44,40,92,78,64,0.00,40.00,11,8,24,0.00
2012-4-21,55,51,48,53,47,40,96,88,75,0.00,40.00,10,8,21,0.02
2012-4-22,52,44,39,51,41,-100,98,95,90,0.00,40.00,13,6,25,0.28
2012-4-23,54,48,38,53,46,37,98,97,95,0.00,40.00,14,10,29,2.26
2012-4-24,53,48,45,48,45,41,98,88,68,0.00,40.00,13,7,26,0.35
2012-4-25,57,49,43,44,38,34,89,69,46,0.00,40.00,9,7,21,0.01
2012-4-26,56,46,35,44,37,34,97,74,43,0.00,40.00,8,4,18,0.00
2012-4-27,50,47,39,48,41,25,97,81,54,0.00,40.00,9,6,27,0.39
2012-4-28,51,42,34,25,22,17,60,46,27,0.00,40.00,10,7,27,0.03
2012-4-29,53,44,34,29,19,-100,63,38,25,0.00,40.00,9,5,22,0.00
2012-4-30,53,44,35,38,27,18,85,53,32,0.00,40.00,8,6,17,0.00
2012-5-1,47,43,40,41,39,38,96,88,77,0.00,40.00,8,5,16,0.57
2012-5-2,47,43,41,43,41,40,98,93,86,0.00,40.00,5,2,10,0.08
2012-5-3,53,46,41,44,42,41,100,88,70,0.00,40.00,5,2,10,0.00
2012-5-4,48,46,44,47,45,43,99,97,93,0.00,40.00,5,3,10,0.40
2012-5-5,55,48,39,51,47,39,100,96,87,0.00,40.00,4,2,9,0.12
2012-5-6,62,46,37,43,37,-100,100,76,35,0.00,40.00,7,3,12,0.01
2012-5-7,67,48,34,41,36,28,100,70,23,0.00,40.00,11,4,19,0.00
2012-5-8,56,47,39,47,42,37,98,84,53,0.00,40.00,10,5,27,0.46
2012-5-9,53,50,47,52,50,46,100,99,98,0.00,40.00,11,8,27,0.62
2012-5-10,59,52,48,54,51,47,100,97,84,0.00,40.00,10,7,24,2.30
2012-5-11,59,51,44,48,46,42,100,82,61,0.00,40.00,7,4,16,0.04
2012-5-12,64,55,46,44,42,39,85,62,45,0.00,40.00,8,6,16,0.00
2012-5-13,64,55,48,51,42,-100,95,64,47,0.00,40.00,9,6,19,0.00
2012-5-14,57,51,47,50,48,46,100,90,74,0.00,40.00,9,4,20,0.00
2012-5-15,68,58,50,55,53,49,100,84,60,0.00,40.00,10,6,21,0.04
2012-5-16,59,54,51,59,54,51,100,99,98,0.00,40.00,10,7,23,1.40
2012-5-17,67,57,44,56,46,35,100,74,36,0.00,40.00,9,5,15,0.01
2012-5-18,67,53,39,47,40,36,98,67,33,0.00,40.00,10,4,19,0.00
2012-5-19,66,57,44,53,46,43,97,69,48,0.00,40.00,10,5,19,0.00
2012-5-20,70,56,45,53,40,-100,97,64,40,0.00,40.00,8,-28,16,0.00
2012-5-21,73,61,47,55,49,41,93,67,40,0.00,40.00,7,3,13,0.00
2012-5-22,66,58,55,63,57,54,100,97,88,0.00,40.00,7,3,17,0.48
2012-5-23,73,63,56,65,60,53,100,91,74,0.00,40.00,8,3,17,0.03
2012-5-24,63,56,53,55,52,49,100,86,76,0.00,40.00,8,5,18,0.00
2012-5-25,60,56,52,58,55,52,100,97,87,0.00,40.00,9,5,19,0.01
2012-5-26,74,62,55,65,59,54,100,93,72,0.00,40.00,10,5,20,0.00
2012-5-27,72,61,49,54,43,-100,100,61,29,0.00,40.00,7,4,14,0.00
2012-5-28,71,60,52,56,53,49,99,79,54,0.00,40.00,3,2,8,0.02
2012-5-29,57,53,51,55,52,49,100,96,78,0.00,40.00,11,5,33,1.12
2012-5-30,62,55,50,58,54,50,100,96,86,0.00,40.00,7,3,16,0.06
2012-5-31,63,56,51,57,55,50,100,94,79,0.00,40.00,8,3,16,0.00
2012-6-1,72,58,48,51,48,45,100,74,38,0.00,40.00,8,3,16,0.01
2012-6-2,59,54,50,51,49,46,96,83,74,0.00,40.00,8,5,20,0.01
2012-6-3,52,50,49,51,47,-100,99,96,85,0.00,40.00,11,8,30,3.04
2012-6-4,54,50,48,51,48,47,98,94,87,0.00,40.00,10,6,30,0.86
2012-6-5,58,51,47,51,47,45,98,89,76,0.00,40.00,7,4,16,0.04
2012-6-6,66,54,47,52,48,46,99,83,55,0.00,40.00,6,3,13,0.02
2012-6-7,59,52,46,51,48,46,100,86,70,0.00,40.00,6,4,12,0.05
2012-6-8,57,52,48,54,51,48,100,97,87,0.00,40.00,8,6,16,0.10
2012-6-9,76,62,49,59,52,47,100,76,39,0.00,40.00,4,2,15,0.15
2012-6-10,73,59,46,55,49,-100,98,76,50,0.00,40.00,5,2,12,0.01
2012-6-11,70,55,45,57,45,-100,100,79,62,0.00,40.00,8,-38,15,0.00
2012-6-12,67,60,55,56,53,49,89,78,68,0.00,40.00,12,9,25,0.00
2012-6-13,61,58,55,59,56,53,100,94,88,0.00,40.00,8,6,18,0.33
2012-6-14,75,63,52,57,51,44,100,69,34,0.00,40.00,6,4,14,0.01
2012-6-15,77,63,49,57,51,46,94,67,42,0.00,40.00,6,3,15,0.01
2012-6-16,65,58,51,52,50,44,94,77,57,0.00,40.00,9,5,18,0.00
2012-6-17,68,55,42,55,46,-100,100,76,48,0.00,40.00,6,2,12,0.00
2012-6-18,63,57,47,52,50,43,98,80,65,0.00,40.00,7,4,12,0.00
2012-6-19,65,52,43,58,35,-100,100,80,76,0.00,40.00,9,-37,23,0.00
2012-6-20,82,72,59,68,64,59,99,77,62,0.00,40.00,9,5,17,0.00
2012-6-21,80,71,62,66,59,52,97,69,45,0.00,40.00,4,3,11,0.00
2012-6-22,77,65,59,62,57,51,95,77,59,0.00,40.00,8,4,15,0.10
2012-6-23,64,59,57,62,58,56,100,97,91,0.00,40.00,7,4,14,0.73
2012-6-24,78,66,57,64,60,55,100,83,60,0.00,40.00,7,4,15,0.78
2012-6-25,71,64,60,63,60,55,99,86,72,0.00,40.00,8,6,19,0.38
2012-6-26,71,62,57,64,60,56,100,92,76,0.00,40.00,8,5,20,1.25
2012-6-27,64,59,56,61,57,55,98,94,83,0.00,40.00,8,6,17,0.27
2012-6-28,78,64,55,64,59,55,100,85,59,0.00,40.00,7,4,14,0.01
2012-6-29,80,66,57,65,61,56,99,85,60,0.00,40.00,10,5,19,0.00
2012-6-30,82,71,60,65,61,57,99,72,52,0.00,40.00,9,5,17,0.00
2012-7-1,86,70,57,67,61,57,100,78,41,0.00,40.00,7,2,15,0.02
2012-7-2,82,68,58,64,61,58,100,81,50,0.00,40.00,6,2,14,0.02
2012-7-3,80,68,56,64,60,56,100,79,55,0.00,40.00,7,3,12,0.00
2012-7-4,77,66,61,68,64,59,100,92,74,0.00,40.00,6,4,12,0.06
2012-7-5,81,66,59,70,64,59,100,91,65,0.00,40.00,4,2,7,0.01
2012-7-6,81,68,60,68,63,60,100,88,64,0.00,40.00,7,4,14,0.00
2012-7-7,78,70,62,68,64,61,97,82,63,0.00,40.00,8,5,16,0.00
2012-7-8,82,71,57,62,56,49,100,62,39,0.00,40.00,6,3,13,0.00
2012-7-9,79,66,50,59,55,49,96,69,41,0.00,40.00,6,4,14,0.00
2012-7-10,76,66,48,59,54,47,96,69,41,0.00,40.00,8,4,22,0.00
2012-7-11,83,68,53,65,57,52,99,74,40,0.00,40.00,7,4,15,0.00
2012-7-12,78,69,62,67,61,53,100,79,51,0.00,40.00,10,7,20,0.00
2012-7-13,81,71,62,68,64,59,93,79,63,0.00,40.00,7,6,17,0.00
2012-7-14,81,72,65,68,65,60,89,77,63,0.00,40.00,7,5,14,0.00
2012-7-15,73,64,63,66,55,-100,98,81,71,0.00,40.00,9,-44,20,0.00
2012-7-16,81,67,60,68,64,59,100,90,54,0.00,40.00,7,3,14,0.07
2012-7-17,79,68,60,70,65,60,99,90,74,0.00,40.00,9,3,16,0.01
2012-7-18,84,73,64,68,65,56,98,77,52,0.00,40.00,8,4,16,0.01
2012-7-19,76,66,55,56,53,50,87,65,46,0.00,40.00,6,3,11,0.01
2012-7-20,75,65,49,56,54,48,99,70,47,0.00,40.00,7,3,14,0.00
2012-7-21,79,62,49,61,49,-100,99,73,50,0.00,40.00,9,-43,15,0.00
2012-7-22,76,68,62,65,62,60,97,81,67,0.00,40.00,11,8,22,0.00
2012-7-23,77,69,63,68,64,61,98,85,72,0.00,40.00,10,8,21,0.00
2012-7-24,75,68,63,69,66,58,99,94,78,0.00,40.00,10,5,24,0.73
2012-7-25,78,64,57,59,49,-100,95,66,46,0.00,40.00,6,-43,14,0.01
2012-7-26,72,64,54,64,59,53,99,85,63,0.00,40.00,4,1,10,0.00
2012-7-27,71,62,59,66,57,-100,100,92,84,0.00,40.00,3,-35,8,0.38
2012-7-28,79,67,57,70,63,57,100,88,68,0.00,40.00,4,1,7,0.01
2012-7-29,66,64,58,65,63,57,100,98,94,0.00,40.00,4,2,9,0.31
2012-7-30,76,65,55,68,62,55,100,90,68,0.00,40.00,9,4,16,0.03
2012-7-31,75,68,63,66,62,60,98,83,66,0.00,40.00,9,7,20,0.00
2012-8-1,79,67,61,68,64,61,100,91,69,0.00,40.00,6,4,14,0.93
2012-8-2,78,70,64,70,67,64,100,88,73,0.00,40.00,6,3,12,0.76
2012-8-3,81,72,63,72,68,63,100,89,72,0.00,40.00,8,4,15,0.00
2012-8-4,86,69,62,68,57,-100,100,77,56,0.00,40.00,4,-43,10,0.00
2012-8-5,81,69,61,73,62,-100,100,89,77,0.00,40.00,10,7,24,0.00
2012-8-6,83,70,62,71,58,-100,100,77,50,0.00,40.00,11,-42,25,0.00
2012-8-7,79,66,53,64,58,53,100,78,50,0.00,40.00,7,3,14,0.00
2012-8-8,80,71,63,68,66,62,98,84,63,0.00,40.00,8,6,16,0.00
2012-8-9,79,71,65,70,68,64,100,91,73,0.00,40.00,7,3,12,0.00
2012-8-10,74,67,63,66,65,63,100,92,77,0.00,40.00,7,5,16,0.07
2012-8-11,78,69,64,71,66,-100,100,94,77,0.00,40.00,7,3,15,0.73
2012-8-12,76,70,65,74,70,65,100,98,92,0.00,40.00,7,5,16,0.11
2012-8-13,81,69,67,71,62,-100,100,87,72,0.00,40.00,7,-32,14,0.01
2012-8-14,83,72,63,69,67,63,100,85,63,0.00,40.00,6,3,10,0.00
2012-8-15,81,72,65,72,68,64,99,87,70,0.00,40.00,5,4,12,0.00
2012-8-16,68,65,62,68,65,61,100,98,94,0.00,40.00,7,3,15,1.13
2012-8-17,78,69,61,66,64,60,99,85,67,0.00,40.00,7,4,13,0.23
2012-8-18,75,68,62,68,65,61,100,91,71,0.00,40.00,6,1,11,0.10
2012-8-19,78,66,58,63,60,57,100,81,56,0.00,40.00,5,2,11,0.22
2012-8-20,79,65,53,63,60,53,99,85,55,0.00,40.00,5,2,10,0.00
2012-8-21,77,66,58,67,61,58,100,86,58,0.00,40.00,4,2,8,0.00
2012-8-22,79,65,54,62,58,51,99,83,41,0.00,40.00,7,2,11,0.00
2012-8-23,78,64,58,68,56,-100,100,85,61,0.00,40.00,6,-38,14,0.01
2012-8-24,80,65,56,66,59,55,100,85,53,0.00,40.00,5,2,10,0.01
2012-8-25,79,62,53,64,53,-100,100,82,54,0.00,40.00,4,2,9,0.00
2012-8-26,79,64,60,68,56,-100,97,84,64,0.00,40.00,8,5,16,0.00
2012-8-27,77,70,63,67,64,61,96,83,67,0.00,40.00,9,7,24,0.00
2012-8-28,74,67,62,70,65,52,99,91,70,0.00,40.00,8,5,18,0.11
2012-8-29,77,63,53,57,52,47,88,69,43,0.00,40.00,8,5,15,0.05
2012-8-30,71,64,54,60,56,52,92,78,62,0.00,40.00,8,5,16,0.00
2012-8-31,72,66,63,63,60,57,99,81,63,0.00,40.00,10,7,19,0.14
2012-9-1,78,64,51,63,55,49,99,77,36,0.00,40.00,6,3,13,0.14
2012-9-2,69,57,50,60,54,49,99,91,55,0.00,40.00,4,2,9,0.09
2012-9-3,72,60,50,61,57,50,100,89,69,0.00,40.00,7,3,17,0.04
2012-9-4,73,64,59,63,60,57,97,88,71,0.00,40.00,8,6,17,0.43
2012-9-5,70,65,58,70,64,57,99,95,87,0.00,40.00,13,6,26,1.45
2012-9-6,73,62,56,61,59,56,100,89,65,0.00,40.00,5,3,10,0.02
2012-9-7,76,63,58,67,58,-100,100,90,74,0.00,40.00,6,-34,13,0.01
2012-9-8,76,69,65,69,67,65,100,93,76,0.00,40.00,11,7,29,0.01
2012-9-9,69,63,57,68,60,57,99,91,73,0.00,40.00,11,3,26,0.35
2012-9-10,69,60,51,54,51,47,98,74,55,0.00,40.00,8,5,21,0.00
2012-9-11,71,60,53,56,50,46,97,70,43,0.00,40.00,9,6,17,0.00
2012-9-12,74,60,47,57,52,47,99,79,41,0.00,40.00,6,3,13,0.00
2012-9-13,72,62,58,63,54,-100,97,84,71,0.00,40.00,9,-37,17,0.00
2012-9-14,75,66,61,65,62,60,98,90,69,0.00,40.00,8,6,16,0.01
2012-9-15,68,63,54,65,59,47,97,87,68,0.00,40.00,9,5,18,0.08
2012-9-16,67,56,49,48,43,40,93,63,40,0.00,40.00,6,4,16,0.01
2012-9-17,67,56,42,55,46,41,98,75,42,0.00,40.00,7,3,13,0.01
2012-9-18,72,64,56,62,59,54,95,84,62,0.00,40.00,10,7,25,0.00
2012-9-19,70,64,52,65,58,43,98,82,62,0.00,40.00,12,6,28,0.24
2012-9-20,66,53,44,49,44,41,98,75,47,0.00,40.00,5,3,12,0.01
2012-9-21,59,54,45,54,52,44,99,92,80,0.00,40.00,4,2,9,0.11
2012-9-22,70,61,53,66,60,52,100,96,83,0.00,40.00,7,5,15,0.15
2012-9-23,75,62,47,63,55,-100,100,84,51,0.00,40.00,8,4,21,0.01
2012-9-24,66,52,43,49,45,42,99,81,44,0.00,40.00,5,2,11,0.00
2012-9-25,67,57,45,56,51,44,99,81,60,0.00,40.00,10,6,23,0.00
2012-9-26,65,62,59,60,58,55,97,88,81,0.00,40.00,11,8,25,0.01
2012-9-27,67,57,42,60,48,41,99,75,45,0.00,40.00,5,1,15,0.01
2012-9-28,62,50,40,53,46,39,99,88,66,0.00,40.00,6,3,12,0.43
2012-9-29,61,55,49,60,54,48,99,98,95,0.00,40.00,9,5,22,1.26
2012-9-30,61,58,56,60,57,55,99,98,96,0.00,40.00,4,0,9,0.86
2012-10-1,63,57,55,56,54,52,97,90,78,0.00,40.00,6,2,15,0.01
2012-10-2,68,60,54,57,56,52,96,87,69,0.00,40.00,7,5,17,0.01
2012-10-3,68,61,57,58,57,54,98,88,62,0.00,40.00,5,2,9,0.04
2012-10-4,59,57,54,58,55,53,98,93,82,0.00,40.00,7,4,17,0.32
2012-10-5,60,57,54,58,56,53,100,96,90,0.00,40.00,6,3,12,0.20
2012-10-6,68,61,54,62,58,47,100,92,78,0.00,40.00,11,6,23,0.10
2012-10-7,63,53,47,49,44,41,96,72,48,0.00,40.00,5,3,16,0.10
2012-10-8,60,50,43,49,43,39,98,80,48,0.00,40.00,6,3,16,0.29
2012-10-9,58,51,43,43,40,37,98,68,52,0.00,40.00,8,5,16,0.00
2012-10-10,60,54,49,59,52,43,98,93,78,0.00,40.00,9,4,24,0.18
2012-10-11,58,52,40,57,39,31,97,64,37,0.00,40.00,9,6,26,0.14
2012-10-12,55,50,40,45,37,27,85,62,44,0.00,40.00,10,6,23,0.04
2012-10-13,52,44,38,33,26,25,81,51,37,0.00,40.00,8,5,23,0.02
2012-10-14,55,48,38,52,44,33,98,86,70,0.00,40.00,7,4,18,0.09
2012-10-15,68,61,52,61,57,50,95,88,77,0.00,40.00,13,10,33,0.02
2012-10-16,62,54,44,60,50,36,98,88,71,0.00,40.00,10,5,21,0.23
2012-10-17,61,48,38,46,38,34,96,70,41,0.00,40.00,5,3,13,0.14
2012-10-18,63,51,40,52,44,37,99,81,38,0.00,40.00,5,2,11,0.00
2012-10-19,61,56,52,59,53,50,97,90,80,0.00,40.00,10,6,19,0.19
2012-10-20,64,61,56,63,60,56,99,98,95,0.00,40.00,10,7,24,1.28
2012-10-21,61,55,50,56,50,43,99,86,68,0.00,40.00,6,3,13,0.01
2012-10-22,61,54,49,44,42,37,74,64,49,0.00,40.00,7,5,20,0.01
2012-10-23,60,51,44,40,36,33,86,58,44,0.00,40.00,8,5,19,0.00
2012-10-24,57,46,33,43,36,30,96,69,42,0.00,40.00,6,3,15,0.00
2012-10-25,56,43,34,39,32,25,97,68,37,0.00,40.00,5,3,11,0.00
2012-10-26,62,48,36,51,44,35,99,89,63,0.00,40.00,6,2,11,0.00
2012-10-27,64,51,43,55,47,39,99,88,51,0.00,40.00,5,2,11,0.00
2012-10-28,57,52,50,50,49,46,97,87,75,0.00,40.00,7,3,18,0.01
2012-10-29,57,55,51,55,53,50,98,94,86,0.00,40.00,0,0,0,0.12
2012-10-30,61,59,56,60,58,55,99,97,92,0.00,40.00,8,4,19,1.06
2012-10-31,63,58,52,60,57,51,99,96,84,0.00,40.00,8,4,18,0.11
2012-11-1,57,51,45,52,47,42,97,86,69,0.00,40.00,7,4,17,0.03
2012-11-2,57,50,45,46,44,42,98,82,61,0.00,40.00,6,3,13,0.01
2012-11-3,56,46,44,45,34,-100,87,70,59,0.00,40.00,7,4,21,0.01
2012-11-4,53,46,39,39,36,31,75,66,51,0.00,40.00,7,6,19,0.00
2012-11-5,39,37,33,31,27,19,72,65,57,0.00,40.00,6,4,14,0.00
2012-11-6,43,34,26,21,19,17,80,57,39,0.00,40.00,6,3,14,0.00
2012-11-7,39,36,27,33,20,16,96,55,42,0.00,40.00,13,9,31,0.08
2012-11-8,41,39,34,40,37,33,96,93,88,0.00,40.00,15,12,34,0.92
2012-11-9,49,43,38,38,35,28,92,74,52,0.00,40.00,9,7,27,0.06
2012-11-10,50,41,29,33,27,21,84,59,33,0.00,40.00,7,4,19,0.00
2012-11-11,52,43,27,50,37,23,94,81,61,0.00,40.00,8,3,19,0.00
2012-11-12,60,55,51,55,52,49,95,90,78,0.00,40.00,11,5,23,0.00
2012-11-13,61,52,41,57,49,32,96,89,71,0.00,40.00,10,3,24,0.30
2012-11-14,46,39,36,32,28,-100,80,66,52,0.00,40.00,9,8,22,0.10
2012-11-15,42,36,35,32,26,-100,82,73,64,0.00,40.00,9,6,18,0.00
2012-11-16,45,38,35,32,30,29,82,73,57,0.00,40.00,6,4,13,0.00
2012-11-17,46,36,26,31,27,24,92,72,48,0.00,40.00,7,4,14,0.00
2012-11-18,46,34,26,28,24,22,95,70,40,0.00,40.00,5,2,10,0.00
2012-11-19,50,35,28,38,31,27,97,87,57,0.00,40.00,5,1,11,0.00
2012-11-20,51,36,28,35,30,27,97,82,41,0.00,40.00,4,1,10,0.01
2012-11-21,49,41,33,41,37,32,97,86,67,0.00,40.00,5,3,10,0.01
2012-11-22,55,39,31,45,32,-100,98,85,59,0.00,40.00,5,2,11,0.01
2012-11-23,52,48,45,45,44,42,93,85,73,0.00,40.00,8,6,16,0.01
2012-11-24,50,45,33,47,37,20,90,76,52,0.00,40.00,10,3,27,0.00
2012-11-25,38,33,30,21,15,9,63,48,34,0.00,40.00,10,7,24,0.00
2012-11-26,44,34,29,23,17,13,58,51,43,0.00,40.00,7,5,22,0.00
2012-11-27,37,31,25,28,20,15,78,63,53,0.00,40.00,5,3,12,0.00
2012-11-28,37,32,26,27,23,20,88,70,59,0.00,40.00,8,5,18,0.00
2012-11-29,41,34,23,31,21,14,92,60,36,0.00,40.00,9,5,25,0.01
2012-11-30,33,25,19,24,10,6,70,52,36,0.00,40.00,8,5,23,0.01
2012-12-1,39,27,17,34,19,7,93,72,55,0.00,40.00,7,4,14,0.07
2012-12-2,52,48,39,51,44,34,96,87,78,0.00,40.00,12,8,24,0.17
2012-12-3,55,46,31,49,41,30,95,83,61,0.00,40.00,11,4,21,0.22
2012-12-4,51,42,29,49,40,28,98,91,79,0.00,40.00,9,4,23,0.00
2012-12-5,56,48,34,52,42,22,97,79,56,0.00,40.00,11,7,26,0.14
2012-12-6,38,32,24,22,17,-100,80,57,45,0.00,40.00,9,6,25,0.02
2012-12-7,46,36,22,42,30,17,93,79,60,0.00,40.00,9,5,18,0.08
2012-12-8,46,43,41,45,42,40,98,97,94,0.00,40.00,5,2,12,0.32
2012-12-9,47,40,30,40,32,26,97,77,54,0.00,40.00,8,4,20,0.05
2012-12-10,50,43,36,50,40,28,99,90,69,0.00,40.00,6,2,16,0.60
2012-12-11,43,38,29,42,33,19,98,85,69,0.00,40.00,7,3,15,0.13
2012-12-12,37,29,24,24,20,16,91,70,50,0.00,40.00,6,3,15,0.00
2012-12-13,44,31,24,30,25,21,94,80,46,0.00,40.00,3,2,8,0.01
2012-12-14,45,38,30,34,30,27,93,71,61,0.00,40.00,8,4,17,0.01
2012-12-15,39,27,18,29,13,5,70,55,39,0.00,40.00,8,6,18,0.00
2012-12-16,28,22,15,17,8,2,72,55,41,0.00,40.00,7,5,17,0.00
2012-12-17,44,35,25,38,30,20,91,81,74,0.00,40.00,10,7,23,0.04
2012-12-18,46,45,43,45,42,38,97,92,77,0.00,40.00,11,9,28,1.85
2012-12-19,46,40,34,45,38,32,97,94,89,0.00,40.00,11,9,27,0.86
2012-12-20,37,34,32,32,30,27,93,85,75,0.00,40.00,8,5,17,0.05
2012-12-21,51,43,34,50,41,30,97,90,83,0.00,40.00,11,7,29,0.84
2012-12-22,46,39,30,43,35,18,93,87,70,0.00,40.00,10,6,21,0.58
2012-12-23,36,30,24,23,15,12,63,54,44,0.00,40.00,8,5,20,0.01
2012-12-24,36,32,29,25,17,13,69,54,42,0.00,40.00,9,5,21,0.00
2012-12-25,32,28,21,20,17,14,82,63,53,0.00,40.00,8,4,14,0.00
2012-12-26,33,25,20,24,16,13,79,69,51,0.00,40.00,7,5,16,0.00
2012-12-27,38,34,29,36,32,23,96,91,78,0.00,40.00,15,11,39,1.23
2012-12-28,34,30,27,30,24,18,96,78,64,0.00,40.00,11,8,28,0.18
2012-12-29,33,27,18,29,22,16,95,81,66,0.00,40.00,10,5,20,0.01
2012-12-30,27,24,18,26,22,11,95,90,79,0.00,40.00,13,10,33,0.01
2012-12-31,32,23,17,24,10,-100,90,67,53,0.00,40.00,13,6,35,0.11
2013-1-1,37,27,14,26,14,1,86,60,38,0.00,40.00,10,6,29,0.05